sensor_id;sensor_type;location;lat;lon;timestamp;P1;durP1;ratioP1;P2;durP2;ratioP2
69410;SDS011;56604;48.652;9.194;2022-10-13T00:01:12;34.90;;;19.07;;
69410;SDS011;56604;48.652;9.194;2022-10-13T00:03:39;41.73;;;19.70;;
69410;SDS011;56604;48.652;9.194;2022-10-13T00:06:07;42.30;;;20.07;;
69410;SDS011;56604;48.652;9.194;2022-10-13T00:08:34;35.13;;;20.73;;
69410;SDS011;56604;48.652;9.194;2022-10-13T00:11:00;48.80;;;19.87;;
69410;SDS011;56604;48.652;9.194;2022-10-13T00:13:26;46.10;;;21.47;;
69410;SDS011;56604;48.652;9.194;2022-10-13T00:15:51;45.27;;;21.00;;
69410;SDS011;56604;48.652;9.194;2022-10-13T00:18:18;42.17;;;21.80;;
69410;SDS011;56604;48.652;9.194;2022-10-13T00:20:44;45.63;;;22.00;;
69410;SDS011;56604;48.652;9.194;2022-10-13T00:23:11;39.67;;;20.90;;
69410;SDS011;56604;48.652;9.194;2022-10-13T00:25:42;43.23;;;20.77;;
69410;SDS011;56604;48.652;9.194;2022-10-13T00:28:08;42.23;;;21.53;;
69410;SDS011;56604;48.652;9.194;2022-10-13T00:30:34;47.70;;;20.13;;
69410;SDS011;56604;48.652;9.194;2022-10-13T00:33:00;42.17;;;22.93;;
69410;SDS011;56604;48.652;9.194;2022-10-13T00:35:25;43.40;;;21.90;;
69410;SDS011;56604;48.652;9.194;2022-10-13T00:37:50;54.53;;;23.30;;
69410;SDS011;56604;48.652;9.194;2022-10-13T00:40:17;56.87;;;24.50;;
69410;SDS011;56604;48.652;9.194;2022-10-13T00:42:42;46.57;;;23.00;;
69410;SDS011;56604;48.652;9.194;2022-10-13T00:47:48;42.33;;;22.33;;
69410;SDS011;56604;48.652;9.194;2022-10-13T00:50:20;43.70;;;22.30;;
69410;SDS011;56604;48.652;9.194;2022-10-13T00:52:50;41.23;;;22.67;;
69410;SDS011;56604;48.652;9.194;2022-10-13T00:55:19;57.33;;;22.33;;
69410;SDS011;56604;48.652;9.194;2022-10-13T00:57:46;48.33;;;22.20;;
69410;SDS011;56604;48.652;9.194;2022-10-13T01:00:19;45.73;;;22.67;;
69410;SDS011;56604;48.652;9.194;2022-10-13T01:02:45;45.10;;;20.93;;
69410;SDS011;56604;48.652;9.194;2022-10-13T01:05:11;41.03;;;22.43;;
69410;SDS011;56604;48.652;9.194;2022-10-13T01:07:36;53.83;;;23.80;;
69410;SDS011;56604;48.652;9.194;2022-10-13T01:10:02;46.93;;;23.10;;
69410;SDS011;56604;48.652;9.194;2022-10-13T01:15:29;43.67;;;20.60;;
69410;SDS011;56604;48.652;9.194;2022-10-13T01:18:29;46.63;;;21.90;;
69410;SDS011;56604;48.652;9.194;2022-10-13T01:29:12;49.90;;;21.03;;
69410;SDS011;56604;48.652;9.194;2022-10-13T01:31:54;43.33;;;21.10;;
69410;SDS011;56604;48.652;9.194;2022-10-13T01:37:09;46.27;;;22.50;;
69410;SDS011;56604;48.652;9.194;2022-10-13T01:39:50;47.67;;;23.87;;
69410;SDS011;56604;48.652;9.194;2022-10-13T01:42:33;50.83;;;23.33;;
69410;SDS011;56604;48.652;9.194;2022-10-13T01:45:04;59.40;;;24.23;;
69410;SDS011;56604;48.652;9.194;2022-10-13T01:47:34;58.40;;;24.07;;
69410;SDS011;56604;48.652;9.194;2022-10-13T01:50:00;55.43;;;24.00;;
69410;SDS011;56604;48.652;9.194;2022-10-13T01:52:33;58.63;;;23.77;;
69410;SDS011;56604;48.652;9.194;2022-10-13T01:55:05;43.47;;;23.00;;
69410;SDS011;56604;48.652;9.194;2022-10-13T01:57:34;54.20;;;23.83;;
69410;SDS011;56604;48.652;9.194;2022-10-13T02:00:05;54.20;;;24.23;;
69410;SDS011;56604;48.652;9.194;2022-10-13T02:05:28;47.37;;;22.90;;
69410;SDS011;56604;48.652;9.194;2022-10-13T02:13:33;48.90;;;22.33;;
69410;SDS011;56604;48.652;9.194;2022-10-13T02:16:01;44.17;;;22.03;;
69410;SDS011;56604;48.652;9.194;2022-10-13T02:18:29;66.37;;;24.67;;
69410;SDS011;56604;48.652;9.194;2022-10-13T02:20:57;48.80;;;21.90;;
69410;SDS011;56604;48.652;9.194;2022-10-13T02:23:23;47.13;;;20.87;;
69410;SDS011;56604;48.652;9.194;2022-10-13T02:25:49;53.60;;;23.27;;
69410;SDS011;56604;48.652;9.194;2022-10-13T02:28:15;36.27;;;21.53;;
69410;SDS011;56604;48.652;9.194;2022-10-13T02:30:42;50.73;;;21.30;;
69410;SDS011;56604;48.652;9.194;2022-10-13T02:33:08;51.17;;;22.17;;
69410;SDS011;56604;48.652;9.194;2022-10-13T02:35:34;43.47;;;21.40;;
69410;SDS011;56604;48.652;9.194;2022-10-13T02:38:00;49.93;;;20.43;;
69410;SDS011;56604;48.652;9.194;2022-10-13T02:40:25;44.30;;;20.63;;
69410;SDS011;56604;48.652;9.194;2022-10-13T02:42:51;47.03;;;21.13;;
69410;SDS011;56604;48.652;9.194;2022-10-13T02:45:16;43.33;;;20.90;;
69410;SDS011;56604;48.652;9.194;2022-10-13T02:47:41;47.67;;;22.27;;
69410;SDS011;56604;48.652;9.194;2022-10-13T02:50:07;37.93;;;20.80;;
69410;SDS011;56604;48.652;9.194;2022-10-13T02:52:33;50.33;;;22.10;;
69410;SDS011;56604;48.652;9.194;2022-10-13T02:54:58;68.63;;;22.13;;
69410;SDS011;56604;48.652;9.194;2022-10-13T02:57:24;40.63;;;20.97;;
69410;SDS011;56604;48.652;9.194;2022-10-13T02:59:49;44.13;;;21.70;;
69410;SDS011;56604;48.652;9.194;2022-10-13T03:02:15;53.10;;;21.60;;
69410;SDS011;56604;48.652;9.194;2022-10-13T03:04:40;46.00;;;22.10;;
69410;SDS011;56604;48.652;9.194;2022-10-13T03:07:06;48.93;;;22.53;;
69410;SDS011;56604;48.652;9.194;2022-10-13T03:09:31;53.03;;;21.20;;
69410;SDS011;56604;48.652;9.194;2022-10-13T03:11:56;38.13;;;20.83;;
69410;SDS011;56604;48.652;9.194;2022-10-13T03:14:22;44.80;;;20.77;;
69410;SDS011;56604;48.652;9.194;2022-10-13T03:16:49;41.23;;;20.73;;
69410;SDS011;56604;48.652;9.194;2022-10-13T03:19:14;45.90;;;20.27;;
69410;SDS011;56604;48.652;9.194;2022-10-13T03:21:39;35.93;;;18.40;;
69410;SDS011;56604;48.652;9.194;2022-10-13T03:24:04;39.20;;;18.50;;
69410;SDS011;56604;48.652;9.194;2022-10-13T03:26:30;34.03;;;17.80;;
69410;SDS011;56604;48.652;9.194;2022-10-13T03:28:56;31.93;;;17.60;;
69410;SDS011;56604;48.652;9.194;2022-10-13T03:31:22;39.43;;;18.80;;
69410;SDS011;56604;48.652;9.194;2022-10-13T03:33:47;32.13;;;18.73;;
69410;SDS011;56604;48.652;9.194;2022-10-13T03:36:13;40.33;;;17.97;;
69410;SDS011;56604;48.652;9.194;2022-10-13T03:38:38;27.83;;;16.13;;
69410;SDS011;56604;48.652;9.194;2022-10-13T03:41:08;29.53;;;15.77;;
69410;SDS011;56604;48.652;9.194;2022-10-13T03:43:35;35.00;;;15.63;;
69410;SDS011;56604;48.652;9.194;2022-10-13T03:46:01;25.93;;;15.80;;
69410;SDS011;56604;48.652;9.194;2022-10-13T03:48:27;35.60;;;15.97;;
69410;SDS011;56604;48.652;9.194;2022-10-13T03:50:52;24.70;;;16.50;;
69410;SDS011;56604;48.652;9.194;2022-10-13T03:53:18;25.07;;;15.63;;
69410;SDS011;56604;48.652;9.194;2022-10-13T03:55:48;27.43;;;15.87;;
69410;SDS011;56604;48.652;9.194;2022-10-13T03:58:14;28.03;;;14.60;;
69410;SDS011;56604;48.652;9.194;2022-10-13T04:00:40;29.13;;;14.57;;
69410;SDS011;56604;48.652;9.194;2022-10-13T04:03:05;24.43;;;15.37;;
69410;SDS011;56604;48.652;9.194;2022-10-13T04:05:32;30.23;;;16.07;;
69410;SDS011;56604;48.652;9.194;2022-10-13T04:07:58;29.50;;;16.03;;
69410;SDS011;56604;48.652;9.194;2022-10-13T04:10:23;47.73;;;15.80;;
69410;SDS011;56604;48.652;9.194;2022-10-13T04:12:49;30.07;;;15.47;;
69410;SDS011;56604;48.652;9.194;2022-10-13T04:15:14;26.07;;;14.80;;
69410;SDS011;56604;48.652;9.194;2022-10-13T04:17:39;42.10;;;15.77;;
69410;SDS011;56604;48.652;9.194;2022-10-13T04:20:05;24.73;;;14.70;;
69410;SDS011;56604;48.652;9.194;2022-10-13T04:22:31;19.80;;;14.10;;
69410;SDS011;56604;48.652;9.194;2022-10-13T04:24:56;17.73;;;13.03;;
69410;SDS011;56604;48.652;9.194;2022-10-13T04:27:21;26.63;;;14.20;;
69410;SDS011;56604;48.652;9.194;2022-10-13T04:29:47;28.87;;;14.67;;
69410;SDS011;56604;48.652;9.194;2022-10-13T04:32:13;22.90;;;13.30;;
69410;SDS011;56604;48.652;9.194;2022-10-13T04:34:38;27.23;;;13.83;;
69410;SDS011;56604;48.652;9.194;2022-10-13T04:37:03;30.87;;;14.00;;
69410;SDS011;56604;48.652;9.194;2022-10-13T04:39:28;18.37;;;12.33;;
69410;SDS011;56604;48.652;9.194;2022-10-13T04:41:54;25.87;;;14.43;;
69410;SDS011;56604;48.652;9.194;2022-10-13T04:44:19;25.03;;;13.60;;
69410;SDS011;56604;48.652;9.194;2022-10-13T04:46:45;20.10;;;13.60;;
69410;SDS011;56604;48.652;9.194;2022-10-13T04:49:10;30.93;;;12.80;;
69410;SDS011;56604;48.652;9.194;2022-10-13T04:51:36;23.57;;;13.60;;
69410;SDS011;56604;48.652;9.194;2022-10-13T04:54:02;23.10;;;13.97;;
69410;SDS011;56604;48.652;9.194;2022-10-13T04:56:29;34.83;;;14.43;;
69410;SDS011;56604;48.652;9.194;2022-10-13T04:58:55;21.40;;;13.10;;
69410;SDS011;56604;48.652;9.194;2022-10-13T05:01:21;20.63;;;13.10;;
69410;SDS011;56604;48.652;9.194;2022-10-13T05:03:55;26.37;;;14.60;;
69410;SDS011;56604;48.652;9.194;2022-10-13T05:06:24;30.57;;;14.53;;
69410;SDS011;56604;48.652;9.194;2022-10-13T05:08:54;29.57;;;14.20;;
69410;SDS011;56604;48.652;9.194;2022-10-13T05:11:20;30.53;;;15.93;;
69410;SDS011;56604;48.652;9.194;2022-10-13T05:13:47;31.10;;;16.50;;
69410;SDS011;56604;48.652;9.194;2022-10-13T05:16:13;28.70;;;15.27;;
69410;SDS011;56604;48.652;9.194;2022-10-13T05:18:41;41.10;;;16.03;;
69410;SDS011;56604;48.652;9.194;2022-10-13T05:21:11;31.93;;;16.90;;
69410;SDS011;56604;48.652;9.194;2022-10-13T05:23:40;33.47;;;16.83;;
69410;SDS011;56604;48.652;9.194;2022-10-13T05:26:08;28.73;;;16.17;;
69410;SDS011;56604;48.652;9.194;2022-10-13T05:28:34;34.73;;;18.63;;
69410;SDS011;56604;48.652;9.194;2022-10-13T05:31:10;47.00;;;18.70;;
69410;SDS011;56604;48.652;9.194;2022-10-13T05:33:37;30.73;;;17.77;;
69410;SDS011;56604;48.652;9.194;2022-10-13T05:36:03;32.13;;;17.60;;
69410;SDS011;56604;48.652;9.194;2022-10-13T05:38:30;33.50;;;18.03;;
69410;SDS011;56604;48.652;9.194;2022-10-13T05:41:00;36.77;;;17.40;;
69410;SDS011;56604;48.652;9.194;2022-10-13T05:43:26;40.30;;;16.20;;
69410;SDS011;56604;48.652;9.194;2022-10-13T05:45:51;35.00;;;17.57;;
69410;SDS011;56604;48.652;9.194;2022-10-13T05:48:16;31.93;;;17.27;;
69410;SDS011;56604;48.652;9.194;2022-10-13T05:50:42;41.87;;;17.93;;
69410;SDS011;56604;48.652;9.194;2022-10-13T05:53:07;36.40;;;16.73;;
69410;SDS011;56604;48.652;9.194;2022-10-13T05:55:32;32.27;;;15.80;;
69410;SDS011;56604;48.652;9.194;2022-10-13T05:57:57;39.83;;;15.77;;
69410;SDS011;56604;48.652;9.194;2022-10-13T06:00:25;33.97;;;17.80;;
69410;SDS011;56604;48.652;9.194;2022-10-13T06:02:58;32.30;;;16.37;;
69410;SDS011;56604;48.652;9.194;2022-10-13T06:05:31;35.70;;;16.83;;
69410;SDS011;56604;48.652;9.194;2022-10-13T06:07:56;39.23;;;16.70;;
69410;SDS011;56604;48.652;9.194;2022-10-13T06:10:23;34.07;;;16.00;;
69410;SDS011;56604;48.652;9.194;2022-10-13T06:12:49;34.00;;;16.60;;
69410;SDS011;56604;48.652;9.194;2022-10-13T06:15:14;31.27;;;15.73;;
69410;SDS011;56604;48.652;9.194;2022-10-13T06:17:40;28.10;;;15.30;;
69410;SDS011;56604;48.652;9.194;2022-10-13T06:20:05;29.30;;;14.83;;
69410;SDS011;56604;48.652;9.194;2022-10-13T06:22:32;25.73;;;14.43;;
69410;SDS011;56604;48.652;9.194;2022-10-13T06:24:58;32.03;;;14.43;;
69410;SDS011;56604;48.652;9.194;2022-10-13T06:27:24;32.33;;;14.43;;
69410;SDS011;56604;48.652;9.194;2022-10-13T06:29:49;25.33;;;12.67;;
69410;SDS011;56604;48.652;9.194;2022-10-13T06:32:14;35.67;;;13.27;;
69410;SDS011;56604;48.652;9.194;2022-10-13T06:34:40;19.53;;;12.00;;
69410;SDS011;56604;48.652;9.194;2022-10-13T06:37:05;22.53;;;12.70;;
69410;SDS011;56604;48.652;9.194;2022-10-13T06:39:31;25.80;;;12.40;;
69410;SDS011;56604;48.652;9.194;2022-10-13T06:41:56;26.50;;;12.20;;
69410;SDS011;56604;48.652;9.194;2022-10-13T06:44:21;19.67;;;12.40;;
69410;SDS011;56604;48.652;9.194;2022-10-13T06:46:47;32.40;;;13.47;;
69410;SDS011;56604;48.652;9.194;2022-10-13T06:49:13;30.80;;;12.23;;
69410;SDS011;56604;48.652;9.194;2022-10-13T06:51:38;25.53;;;13.03;;
69410;SDS011;56604;48.652;9.194;2022-10-13T06:54:03;21.00;;;12.20;;
69410;SDS011;56604;48.652;9.194;2022-10-13T06:56:29;25.73;;;12.47;;
69410;SDS011;56604;48.652;9.194;2022-10-13T06:58:54;21.63;;;10.90;;
69410;SDS011;56604;48.652;9.194;2022-10-13T07:01:20;34.00;;;12.63;;
69410;SDS011;56604;48.652;9.194;2022-10-13T07:03:48;21.90;;;11.70;;
69410;SDS011;56604;48.652;9.194;2022-10-13T07:06:14;23.90;;;11.27;;
69410;SDS011;56604;48.652;9.194;2022-10-13T07:08:40;32.03;;;11.67;;
69410;SDS011;56604;48.652;9.194;2022-10-13T07:11:07;21.00;;;11.40;;
69410;SDS011;56604;48.652;9.194;2022-10-13T07:13:33;26.37;;;10.47;;
69410;SDS011;56604;48.652;9.194;2022-10-13T07:16:01;20.10;;;10.67;;
69410;SDS011;56604;48.652;9.194;2022-10-13T07:18:27;29.93;;;11.20;;
69410;SDS011;56604;48.652;9.194;2022-10-13T07:20:52;23.60;;;10.67;;
69410;SDS011;56604;48.652;9.194;2022-10-13T07:23:17;17.27;;;10.57;;
69410;SDS011;56604;48.652;9.194;2022-10-13T07:25:43;17.70;;;10.33;;
69410;SDS011;56604;48.652;9.194;2022-10-13T07:28:08;26.37;;;10.17;;
69410;SDS011;56604;48.652;9.194;2022-10-13T07:30:33;30.63;;;10.23;;
69410;SDS011;56604;48.652;9.194;2022-10-13T07:32:58;18.27;;;10.70;;
69410;SDS011;56604;48.652;9.194;2022-10-13T07:35:24;23.00;;;10.30;;
69410;SDS011;56604;48.652;9.194;2022-10-13T07:37:51;19.60;;;10.40;;
69410;SDS011;56604;48.652;9.194;2022-10-13T07:40:17;16.60;;;10.03;;
69410;SDS011;56604;48.652;9.194;2022-10-13T07:42:42;14.83;;;9.77;;
69410;SDS011;56604;48.652;9.194;2022-10-13T07:45:07;17.00;;;9.57;;
69410;SDS011;56604;48.652;9.194;2022-10-13T07:47:33;19.70;;;8.70;;
69410;SDS011;56604;48.652;9.194;2022-10-13T07:49:59;14.27;;;9.03;;
69410;SDS011;56604;48.652;9.194;2022-10-13T07:52:24;15.40;;;8.77;;
69410;SDS011;56604;48.652;9.194;2022-10-13T07:54:49;12.73;;;8.33;;
69410;SDS011;56604;48.652;9.194;2022-10-13T07:57:15;21.23;;;9.33;;
69410;SDS011;56604;48.652;9.194;2022-10-13T07:59:40;20.43;;;9.77;;
69410;SDS011;56604;48.652;9.194;2022-10-13T08:02:05;21.70;;;8.40;;
69410;SDS011;56604;48.652;9.194;2022-10-13T08:04:31;20.23;;;8.97;;
69410;SDS011;56604;48.652;9.194;2022-10-13T08:06:58;14.53;;;8.30;;
69410;SDS011;56604;48.652;9.194;2022-10-13T08:09:24;20.90;;;8.67;;
69410;SDS011;56604;48.652;9.194;2022-10-13T08:11:50;13.83;;;8.47;;
69410;SDS011;56604;48.652;9.194;2022-10-13T08:14:16;12.27;;;7.57;;
69410;SDS011;56604;48.652;9.194;2022-10-13T08:16:41;22.53;;;9.17;;
69410;SDS011;56604;48.652;9.194;2022-10-13T08:19:10;15.90;;;8.93;;
69410;SDS011;56604;48.652;9.194;2022-10-13T08:21:36;15.10;;;8.10;;
69410;SDS011;56604;48.652;9.194;2022-10-13T08:24:02;11.07;;;7.20;;
69410;SDS011;56604;48.652;9.194;2022-10-13T08:26:29;18.50;;;8.67;;
69410;SDS011;56604;48.652;9.194;2022-10-13T08:28:54;14.30;;;7.83;;
69410;SDS011;56604;48.652;9.194;2022-10-13T08:31:19;13.47;;;8.30;;
69410;SDS011;56604;48.652;9.194;2022-10-13T08:33:45;16.10;;;7.87;;
69410;SDS011;56604;48.652;9.194;2022-10-13T08:36:14;12.17;;;7.80;;
69410;SDS011;56604;48.652;9.194;2022-10-13T08:38:41;10.40;;;7.70;;
69410;SDS011;56604;48.652;9.194;2022-10-13T08:41:12;17.90;;;7.93;;
69410;SDS011;56604;48.652;9.194;2022-10-13T08:43:42;24.57;;;7.07;;
69410;SDS011;56604;48.652;9.194;2022-10-13T08:46:12;8.80;;;7.13;;
69410;SDS011;56604;48.652;9.194;2022-10-13T08:48:43;9.73;;;6.60;;
69410;SDS011;56604;48.652;9.194;2022-10-13T08:51:10;23.37;;;7.87;;
69410;SDS011;56604;48.652;9.194;2022-10-13T08:53:40;20.40;;;7.77;;
69410;SDS011;56604;48.652;9.194;2022-10-13T08:56:16;13.57;;;6.97;;
69410;SDS011;56604;48.652;9.194;2022-10-13T08:58:58;18.83;;;7.87;;
69410;SDS011;56604;48.652;9.194;2022-10-13T09:01:29;16.43;;;7.07;;
69410;SDS011;56604;48.652;9.194;2022-10-13T09:04:01;15.20;;;6.30;;
69410;SDS011;56604;48.652;9.194;2022-10-13T09:06:41;9.70;;;6.87;;
69410;SDS011;56604;48.652;9.194;2022-10-13T09:09:11;12.53;;;6.60;;
69410;SDS011;56604;48.652;9.194;2022-10-13T09:11:40;7.53;;;6.57;;
69410;SDS011;56604;48.652;9.194;2022-10-13T09:14:08;28.03;;;6.70;;
69410;SDS011;56604;48.652;9.194;2022-10-13T09:16:46;20.93;;;6.57;;
69410;SDS011;56604;48.652;9.194;2022-10-13T09:21:39;7.83;;;5.77;;
69410;SDS011;56604;48.652;9.194;2022-10-13T09:24:06;12.10;;;6.40;;
69410;SDS011;56604;48.652;9.194;2022-10-13T09:26:36;28.20;;;7.10;;
69410;SDS011;56604;48.652;9.194;2022-10-13T09:29:09;17.43;;;6.30;;
69410;SDS011;56604;48.652;9.194;2022-10-13T09:31:39;15.80;;;6.57;;
69410;SDS011;56604;48.652;9.194;2022-10-13T09:36:55;24.87;;;7.40;;
69410;SDS011;56604;48.652;9.194;2022-10-13T09:39:21;19.67;;;6.57;;
69410;SDS011;56604;48.652;9.194;2022-10-13T09:41:47;15.30;;;7.33;;
69410;SDS011;56604;48.652;9.194;2022-10-13T09:44:13;6.33;;;5.00;;
69410;SDS011;56604;48.652;9.194;2022-10-13T09:47:01;12.23;;;6.53;;
69410;SDS011;56604;48.652;9.194;2022-10-13T09:54:44;15.13;;;6.33;;
69410;SDS011;56604;48.652;9.194;2022-10-13T10:00:06;9.47;;;6.80;;
69410;SDS011;56604;48.652;9.194;2022-10-13T10:05:51;10.07;;;6.50;;
69410;SDS011;56604;48.652;9.194;2022-10-13T10:08:40;15.77;;;6.53;;
69410;SDS011;56604;48.652;9.194;2022-10-13T10:11:19;14.70;;;6.20;;
69410;SDS011;56604;48.652;9.194;2022-10-13T10:13:51;10.03;;;6.03;;
69410;SDS011;56604;48.652;9.194;2022-10-13T10:16:24;14.03;;;7.07;;
69410;SDS011;56604;48.652;9.194;2022-10-13T10:19:02;27.53;;;6.67;;
69410;SDS011;56604;48.652;9.194;2022-10-13T10:24:37;10.77;;;6.33;;
69410;SDS011;56604;48.652;9.194;2022-10-13T10:27:30;11.93;;;6.50;;
69410;SDS011;56604;48.652;9.194;2022-10-13T10:30:16;10.67;;;6.87;;
69410;SDS011;56604;48.652;9.194;2022-10-13T10:32:51;11.43;;;6.57;;
69410;SDS011;56604;48.652;9.194;2022-10-13T10:41:30;16.90;;;6.87;;
69410;SDS011;56604;48.652;9.194;2022-10-13T10:44:15;9.83;;;5.97;;
69410;SDS011;56604;48.652;9.194;2022-10-13T10:46:46;11.03;;;6.20;;
69410;SDS011;56604;48.652;9.194;2022-10-13T10:49:15;15.50;;;7.33;;
69410;SDS011;56604;48.652;9.194;2022-10-13T10:51:43;13.70;;;7.20;;
69410;SDS011;56604;48.652;9.194;2022-10-13T10:57:01;14.03;;;7.00;;
69410;SDS011;56604;48.652;9.194;2022-10-13T10:59:50;14.83;;;7.00;;
69410;SDS011;56604;48.652;9.194;2022-10-13T11:08:37;25.33;;;6.53;;
69410;SDS011;56604;48.652;9.194;2022-10-13T11:16:25;11.07;;;6.20;;
69410;SDS011;56604;48.652;9.194;2022-10-13T11:18:54;14.50;;;6.80;;
69410;SDS011;56604;48.652;9.194;2022-10-13T11:40:43;9.43;;;6.20;;
69410;SDS011;56604;48.652;9.194;2022-10-13T11:46:37;13.27;;;5.40;;
69410;SDS011;56604;48.652;9.194;2022-10-13T11:52:23;17.60;;;6.20;;
69410;SDS011;56604;48.652;9.194;2022-10-13T11:54:50;10.40;;;6.23;;
69410;SDS011;56604;48.652;9.194;2022-10-13T11:57:21;14.90;;;5.93;;
69410;SDS011;56604;48.652;9.194;2022-10-13T11:59:50;10.13;;;5.63;;
69410;SDS011;56604;48.652;9.194;2022-10-13T12:02:19;10.37;;;6.00;;
69410;SDS011;56604;48.652;9.194;2022-10-13T12:05:02;20.70;;;5.30;;
69410;SDS011;56604;48.652;9.194;2022-10-13T12:07:33;8.77;;;5.70;;
69410;SDS011;56604;48.652;9.194;2022-10-13T12:10:00;19.47;;;6.10;;
69410;SDS011;56604;48.652;9.194;2022-10-13T12:12:29;23.80;;;6.30;;
69410;SDS011;56604;48.652;9.194;2022-10-13T12:14:55;18.43;;;5.90;;
69410;SDS011;56604;48.652;9.194;2022-10-13T12:19:49;12.83;;;4.97;;
69410;SDS011;56604;48.652;9.194;2022-10-13T12:22:15;11.30;;;5.67;;
69410;SDS011;56604;48.652;9.194;2022-10-13T12:24:41;11.10;;;5.70;;
69410;SDS011;56604;48.652;9.194;2022-10-13T12:27:10;9.23;;;5.00;;
69410;SDS011;56604;48.652;9.194;2022-10-13T12:29:43;14.80;;;5.93;;
69410;SDS011;56604;48.652;9.194;2022-10-13T12:32:26;15.40;;;6.03;;
69410;SDS011;56604;48.652;9.194;2022-10-13T12:34:54;12.83;;;4.93;;
69410;SDS011;56604;48.652;9.194;2022-10-13T12:37:26;16.43;;;5.73;;
69410;SDS011;56604;48.652;9.194;2022-10-13T12:39:55;13.57;;;5.70;;
69410;SDS011;56604;48.652;9.194;2022-10-13T12:42:29;9.50;;;4.97;;
69410;SDS011;56604;48.652;9.194;2022-10-13T12:44:56;20.33;;;5.57;;
69410;SDS011;56604;48.652;9.194;2022-10-13T12:47:37;9.27;;;5.00;;
69410;SDS011;56604;48.652;9.194;2022-10-13T12:53:11;9.37;;;4.70;;
69410;SDS011;56604;48.652;9.194;2022-10-13T12:55:50;13.30;;;5.50;;
69410;SDS011;56604;48.652;9.194;2022-10-13T12:58:24;7.43;;;4.90;;
69410;SDS011;56604;48.652;9.194;2022-10-13T13:00:56;15.70;;;5.63;;
69410;SDS011;56604;48.652;9.194;2022-10-13T13:03:42;10.33;;;5.30;;
69410;SDS011;56604;48.652;9.194;2022-10-13T13:08:40;14.17;;;5.67;;
69410;SDS011;56604;48.652;9.194;2022-10-13T13:11:18;14.70;;;6.00;;
69410;SDS011;56604;48.652;9.194;2022-10-13T13:13:45;10.13;;;5.03;;
69410;SDS011;56604;48.652;9.194;2022-10-13T13:16:15;12.63;;;5.00;;
69410;SDS011;56604;48.652;9.194;2022-10-13T13:18:44;20.63;;;5.90;;
69410;SDS011;56604;48.652;9.194;2022-10-13T13:21:12;10.37;;;5.60;;
69410;SDS011;56604;48.652;9.194;2022-10-13T13:23:38;10.60;;;5.13;;
69410;SDS011;56604;48.652;9.194;2022-10-13T13:28:47;16.70;;;5.77;;
69410;SDS011;56604;48.652;9.194;2022-10-13T13:31:17;10.37;;;5.90;;
69410;SDS011;56604;48.652;9.194;2022-10-13T13:33:44;25.43;;;5.90;;
69410;SDS011;56604;48.652;9.194;2022-10-13T13:36:14;9.03;;;5.57;;
69410;SDS011;56604;48.652;9.194;2022-10-13T13:38:42;14.33;;;6.00;;
69410;SDS011;56604;48.652;9.194;2022-10-13T13:41:08;9.07;;;5.93;;
69410;SDS011;56604;48.652;9.194;2022-10-13T13:43:35;18.73;;;5.67;;
69410;SDS011;56604;48.652;9.194;2022-10-13T13:46:00;8.93;;;5.57;;
69410;SDS011;56604;48.652;9.194;2022-10-13T13:48:27;15.93;;;5.90;;
69410;SDS011;56604;48.652;9.194;2022-10-13T13:50:52;12.53;;;5.27;;
69410;SDS011;56604;48.652;9.194;2022-10-13T13:53:17;15.43;;;5.47;;
69410;SDS011;56604;48.652;9.194;2022-10-13T13:55:42;11.20;;;4.60;;
69410;SDS011;56604;48.652;9.194;2022-10-13T13:58:10;7.67;;;5.20;;
69410;SDS011;56604;48.652;9.194;2022-10-13T14:00:35;10.67;;;5.13;;
69410;SDS011;56604;48.652;9.194;2022-10-13T14:03:01;13.93;;;5.20;;
69410;SDS011;56604;48.652;9.194;2022-10-13T14:05:26;8.30;;;5.40;;
69410;SDS011;56604;48.652;9.194;2022-10-13T14:07:52;9.47;;;4.40;;
69410;SDS011;56604;48.652;9.194;2022-10-13T14:10:19;6.80;;;5.03;;
69410;SDS011;56604;48.652;9.194;2022-10-13T14:12:45;10.83;;;4.37;;
69410;SDS011;56604;48.652;9.194;2022-10-13T14:15:10;12.63;;;5.27;;
69410;SDS011;56604;48.652;9.194;2022-10-13T14:17:35;14.20;;;5.60;;
69410;SDS011;56604;48.652;9.194;2022-10-13T14:20:00;9.80;;;5.43;;
69410;SDS011;56604;48.652;9.194;2022-10-13T14:22:26;10.07;;;4.93;;
69410;SDS011;56604;48.652;9.194;2022-10-13T14:24:51;11.50;;;5.20;;
69410;SDS011;56604;48.652;9.194;2022-10-13T14:27:16;8.33;;;4.73;;
69410;SDS011;56604;48.652;9.194;2022-10-13T14:29:42;31.47;;;5.90;;
69410;SDS011;56604;48.652;9.194;2022-10-13T14:32:07;19.90;;;5.83;;
69410;SDS011;56604;48.652;9.194;2022-10-13T14:34:32;13.57;;;5.30;;
69410;SDS011;56604;48.652;9.194;2022-10-13T14:36:58;19.63;;;5.53;;
69410;SDS011;56604;48.652;9.194;2022-10-13T14:39:23;18.00;;;5.00;;
69410;SDS011;56604;48.652;9.194;2022-10-13T14:41:49;8.77;;;5.07;;
69410;SDS011;56604;48.652;9.194;2022-10-13T14:44:14;7.30;;;5.07;;
69410;SDS011;56604;48.652;9.194;2022-10-13T14:46:40;9.63;;;4.70;;
69410;SDS011;56604;48.652;9.194;2022-10-13T14:49:05;8.13;;;4.80;;
69410;SDS011;56604;48.652;9.194;2022-10-13T14:51:31;11.03;;;5.10;;
69410;SDS011;56604;48.652;9.194;2022-10-13T14:53:56;12.10;;;4.70;;
69410;SDS011;56604;48.652;9.194;2022-10-13T14:56:23;10.27;;;4.97;;
69410;SDS011;56604;48.652;9.194;2022-10-13T14:58:50;8.27;;;4.93;;
69410;SDS011;56604;48.652;9.194;2022-10-13T15:01:17;7.00;;;5.10;;
69410;SDS011;56604;48.652;9.194;2022-10-13T15:03:43;10.20;;;4.80;;
69410;SDS011;56604;48.652;9.194;2022-10-13T15:06:10;15.93;;;5.07;;
69410;SDS011;56604;48.652;9.194;2022-10-13T15:08:41;10.10;;;5.00;;
69410;SDS011;56604;48.652;9.194;2022-10-13T15:11:06;18.53;;;6.87;;
69410;SDS011;56604;48.652;9.194;2022-10-13T15:13:32;14.10;;;8.13;;
69410;SDS011;56604;48.652;9.194;2022-10-13T15:15:57;18.37;;;7.97;;
69410;SDS011;56604;48.652;9.194;2022-10-13T15:18:32;18.57;;;7.03;;
69410;SDS011;56604;48.652;9.194;2022-10-13T15:21:00;23.33;;;7.27;;
69410;SDS011;56604;48.652;9.194;2022-10-13T15:23:25;20.13;;;6.50;;
69410;SDS011;56604;48.652;9.194;2022-10-13T15:25:55;13.27;;;5.87;;
69410;SDS011;56604;48.652;9.194;2022-10-13T15:28:22;11.90;;;5.37;;
69410;SDS011;56604;48.652;9.194;2022-10-13T15:30:48;9.80;;;6.03;;
69410;SDS011;56604;48.652;9.194;2022-10-13T15:33:14;22.33;;;7.20;;
69410;SDS011;56604;48.652;9.194;2022-10-13T15:35:39;12.00;;;5.33;;
69410;SDS011;56604;48.652;9.194;2022-10-13T15:38:04;18.67;;;6.10;;
69410;SDS011;56604;48.652;9.194;2022-10-13T15:40:30;14.60;;;5.50;;
69410;SDS011;56604;48.652;9.194;2022-10-13T15:42:57;10.30;;;4.73;;
69410;SDS011;56604;48.652;9.194;2022-10-13T15:45:23;15.20;;;5.93;;
69410;SDS011;56604;48.652;9.194;2022-10-13T15:47:50;12.30;;;5.40;;
69410;SDS011;56604;48.652;9.194;2022-10-13T15:50:15;10.67;;;5.70;;
69410;SDS011;56604;48.652;9.194;2022-10-13T15:52:41;13.10;;;4.90;;
69410;SDS011;56604;48.652;9.194;2022-10-13T15:55:07;16.60;;;5.90;;
69410;SDS011;56604;48.652;9.194;2022-10-13T15:57:33;7.03;;;5.70;;
69410;SDS011;56604;48.652;9.194;2022-10-13T15:59:59;12.90;;;6.30;;
69410;SDS011;56604;48.652;9.194;2022-10-13T16:02:24;14.67;;;6.57;;
69410;SDS011;56604;48.652;9.194;2022-10-13T16:04:49;11.30;;;6.70;;
69410;SDS011;56604;48.652;9.194;2022-10-13T16:07:15;19.67;;;7.17;;
69410;SDS011;56604;48.652;9.194;2022-10-13T16:09:42;10.50;;;6.80;;
69410;SDS011;56604;48.652;9.194;2022-10-13T16:12:08;17.03;;;7.90;;
69410;SDS011;56604;48.652;9.194;2022-10-13T16:14:33;11.87;;;8.00;;